createdAt,value
2023-02-22T00:00:43.086Z,101295.00
2023-02-22T00:03:16.728Z,101292.00
2023-02-22T00:05:47.642Z,101288.00
2023-02-22T00:08:16.079Z,101290.00
2023-02-22T00:10:43.665Z,101290.00
2023-02-22T00:13:13.408Z,101287.00
2023-02-22T00:15:44.411Z,101278.00
2023-02-22T00:18:13.795Z,101291.00
2023-02-22T00:20:42.398Z,101288.00
2023-02-22T00:23:19.047Z,101285.00
2023-02-22T00:25:50.446Z,101287.00
2023-02-22T00:28:19.011Z,101283.00
2023-02-22T00:30:48.620Z,101283.00
2023-02-22T00:33:20.057Z,101273.00
2023-02-22T00:35:46.904Z,101279.00
2023-02-22T00:38:16.656Z,101281.00
2023-02-22T00:40:43.471Z,101270.00
2023-02-22T00:43:10.744Z,101279.00
2023-02-22T00:45:37.513Z,101278.00
2023-02-22T00:48:06.130Z,101275.00
2023-02-22T00:50:33.760Z,101273.00
2023-02-22T00:53:03.904Z,101281.00
2023-02-22T00:55:33.872Z,101275.00
2023-02-22T00:58:02.213Z,101282.00
2023-02-22T01:00:38.146Z,101276.00
2023-02-22T01:03:06.826Z,101268.00
2023-02-22T01:05:35.836Z,101275.00
2023-02-22T01:08:04.078Z,101271.00
2023-02-22T01:10:31.408Z,101276.00
2023-02-22T01:13:02.405Z,101282.00
2023-02-22T01:15:31.306Z,101271.00
2023-02-22T01:17:59.603Z,101275.00
2023-02-22T01:20:29.633Z,101283.00
2023-02-22T01:22:59.224Z,101274.00
2023-02-22T01:25:29.819Z,101266.00
2023-02-22T01:27:58.741Z,101273.00
2023-02-22T01:30:28.829Z,101272.00
2023-02-22T01:32:56.114Z,101272.00
2023-02-22T01:35:27.899Z,101266.00
2023-02-22T01:37:55.232Z,101263.00
2023-02-22T01:40:26.599Z,101259.00
2023-02-22T01:43:01.133Z,101260.00
2023-02-22T01:45:34.786Z,101248.00
2023-02-22T01:48:05.850Z,101249.00
2023-02-22T01:50:37.883Z,101259.00
2023-02-22T01:53:05.493Z,101252.00
2023-02-22T01:55:36.089Z,101251.00
2023-02-22T01:58:05.669Z,101254.00
2023-02-22T02:00:34.787Z,101251.00
2023-02-22T02:03:09.824Z,101255.00
2023-02-22T02:05:38.113Z,101250.00
2023-02-22T02:08:28.641Z,101250.00
2023-02-22T02:10:55.517Z,101248.00
2023-02-22T02:13:22.538Z,101239.00
2023-02-22T02:15:49.894Z,101251.00
2023-02-22T02:18:16.793Z,101246.00
2023-02-22T02:21:01.179Z,101241.00
2023-02-22T02:24:05.094Z,101249.00
2023-02-22T02:26:58.509Z,101240.00
2023-02-22T02:29:50.919Z,101241.00
2023-02-22T02:32:33.270Z,101235.00
2023-02-22T02:35:30.340Z,101242.00
2023-02-22T02:38:05.406Z,101243.00
2023-02-22T02:40:57.253Z,101235.00
2023-02-22T02:43:32.292Z,101244.00
2023-02-22T02:46:09.289Z,101236.00
2023-02-22T02:48:37.877Z,101236.00
2023-02-22T02:51:08.066Z,101231.00
2023-02-22T02:53:39.521Z,101239.00
2023-02-22T02:56:06.543Z,101229.00
2023-02-22T02:58:34.340Z,101240.00
2023-02-22T03:01:07.109Z,101229.00
2023-02-22T03:03:54.897Z,101239.00
2023-02-22T03:06:59.402Z,101240.00
2023-02-22T03:09:36.395Z,101241.00
2023-02-22T03:12:38.224Z,101233.00
2023-02-22T03:15:35.106Z,101233.00
2023-02-22T03:18:07.759Z,101234.00
2023-02-22T03:20:37.471Z,101230.00
2023-02-22T03:23:28.921Z,101233.00
2023-02-22T03:26:05.182Z,101231.00
2023-02-22T03:28:35.730Z,101230.00
2023-02-22T03:31:12.873Z,101232.00
2023-02-22T03:34:18.104Z,101231.00
2023-02-22T03:36:50.410Z,101225.00
2023-02-22T03:39:20.518Z,101225.00
2023-02-22T03:41:54.047Z,101224.00
2023-02-22T03:44:26.269Z,101232.00
2023-02-22T03:46:56.891Z,101226.00
2023-02-22T03:49:40.254Z,101235.00
2023-02-22T03:52:07.762Z,101234.00
2023-02-22T03:54:36.575Z,101235.00
2023-02-22T03:59:53.661Z,101237.00
2023-02-22T04:02:20.823Z,101232.00
2023-02-22T04:04:47.848Z,101232.00
2023-02-22T04:07:14.656Z,101230.00
2023-02-22T04:09:42.091Z,101228.00
2023-02-22T04:12:10.447Z,101237.00
2023-02-22T04:14:37.330Z,101241.00
2023-02-22T04:17:04.113Z,101229.00
2023-02-22T04:19:30.679Z,101231.00
2023-02-22T04:21:58.929Z,101239.00
2023-02-22T04:24:26.280Z,101236.00
2023-02-22T04:26:53.387Z,101237.00
2023-02-22T04:29:20.182Z,101226.00
2023-02-22T04:31:46.747Z,101228.00
2023-02-22T04:34:13.357Z,101234.00
2023-02-22T04:36:42.399Z,101225.00
2023-02-22T04:39:10.424Z,101234.00
2023-02-22T04:41:37.009Z,101215.00
2023-02-22T04:44:03.630Z,101220.00
2023-02-22T04:46:31.563Z,101225.00
2023-02-22T04:48:58.199Z,101218.00
2023-02-22T04:51:25.091Z,101233.00
2023-02-22T04:53:51.616Z,101232.00
2023-02-22T04:56:19.436Z,101224.00
2023-02-22T04:58:47.844Z,101217.00
2023-02-22T05:01:17.815Z,101212.00
2023-02-22T05:03:48.701Z,101222.00
2023-02-22T05:06:20.296Z,101219.00
2023-02-22T05:08:48.272Z,101219.00
2023-02-22T05:11:16.086Z,101210.00
2023-02-22T05:13:43.086Z,101215.00
2023-02-22T05:16:09.850Z,101216.00
2023-02-22T05:18:36.536Z,101212.00
2023-02-22T05:21:03.293Z,101208.00
2023-02-22T05:23:30.163Z,101211.00
2023-02-22T05:25:56.980Z,101205.00
2023-02-22T05:28:23.790Z,101217.00
2023-02-22T05:30:50.409Z,101217.00
2023-02-22T05:33:18.127Z,101216.00
2023-02-22T05:35:44.673Z,101212.00
2023-02-22T05:38:15.138Z,101199.00
2023-02-22T05:40:43.897Z,101217.00
2023-02-22T05:43:12.178Z,101219.00
2023-02-22T05:45:38.732Z,101215.00
2023-02-22T05:48:05.438Z,101235.00
2023-02-22T05:50:35.782Z,101232.00
2023-02-22T05:53:02.664Z,101217.00
2023-02-22T05:55:29.545Z,101226.00
2023-02-22T05:57:56.054Z,101217.00
2023-02-22T06:00:28.061Z,101229.00
2023-02-22T06:03:06.490Z,101226.00
2023-02-22T06:05:33.304Z,101225.00
2023-02-22T06:08:01.149Z,101238.00
2023-02-22T06:10:30.587Z,101236.00
2023-02-22T06:12:58.426Z,101231.00
2023-02-22T06:15:27.205Z,101230.00
2023-02-22T06:17:58.285Z,101239.00
2023-02-22T06:20:29.142Z,101238.00
2023-02-22T06:22:58.743Z,101236.00
2023-02-22T06:25:28.415Z,101242.00
2023-02-22T06:27:54.998Z,101245.00
2023-02-22T06:30:23.884Z,101238.00
2023-02-22T06:32:51.432Z,101244.00
2023-02-22T06:35:18.491Z,101250.00
2023-02-22T06:37:45.567Z,101250.00
2023-02-22T06:40:13.521Z,101262.00
2023-02-22T06:42:40.402Z,101250.00
2023-02-22T06:45:07.562Z,101249.00
2023-02-22T06:47:38.458Z,101263.00
2023-02-22T06:50:05.057Z,101258.00
2023-02-22T06:52:33.235Z,101265.00
2023-02-22T06:54:59.973Z,101249.00
2023-02-22T06:57:26.608Z,101256.00
2023-02-22T06:59:53.202Z,101260.00
2023-02-22T07:02:20.183Z,101261.00
2023-02-22T07:04:46.987Z,101262.00
2023-02-22T07:07:14.028Z,101252.00
2023-02-22T07:09:40.561Z,101259.00
2023-02-22T07:12:08.031Z,101261.00
2023-02-22T07:14:34.903Z,101270.00
2023-02-22T07:17:01.624Z,101265.00
2023-02-22T07:19:33.475Z,101272.00
2023-02-22T07:22:02.629Z,101256.00
2023-02-22T07:24:29.290Z,101264.00
2023-02-22T07:26:55.837Z,101262.00
2023-02-22T07:29:22.853Z,101265.00
2023-02-22T07:31:52.508Z,101263.00
2023-02-22T07:34:19.320Z,101265.00
2023-02-22T07:36:45.929Z,101264.00
2023-02-22T07:39:13.359Z,101262.00
2023-02-22T07:41:40.343Z,101270.00
2023-02-22T07:44:07.442Z,101270.00
2023-02-22T07:46:35.541Z,101275.00
2023-02-22T07:49:03.699Z,101271.00
2023-02-22T07:51:30.504Z,101271.00
2023-02-22T07:53:57.943Z,101276.00
2023-02-22T07:56:24.779Z,101270.00
2023-02-22T07:58:51.314Z,101268.00
2023-02-22T08:01:20.432Z,101277.00
2023-02-22T08:03:47.787Z,101267.00
2023-02-22T08:06:14.532Z,101280.00
2023-02-22T08:08:41.150Z,101270.00
2023-02-22T08:11:09.272Z,101269.00
2023-02-22T08:13:37.729Z,101281.00
2023-02-22T08:16:05.253Z,101277.00
2023-02-22T08:18:32.565Z,101270.00
2023-02-22T08:21:03.410Z,101276.00
2023-02-22T08:23:30.577Z,101267.00
2023-02-22T08:25:59.500Z,101269.00
2023-02-22T08:28:26.487Z,101266.00
2023-02-22T08:30:53.882Z,101267.00
2023-02-22T08:33:23.885Z,101268.00
2023-02-22T08:35:52.469Z,101266.00
2023-02-22T08:38:24.958Z,101262.00
2023-02-22T08:40:51.747Z,101263.00
2023-02-22T08:43:28.381Z,101259.00
2023-02-22T08:46:00.623Z,101275.00
2023-02-22T08:48:29.739Z,101271.00
2023-02-22T08:50:59.496Z,101272.00
2023-02-22T08:53:28.895Z,101270.00
2023-02-22T08:55:56.602Z,101258.00
2023-02-22T08:58:26.325Z,101270.00
2023-02-22T09:00:58.342Z,101270.00
2023-02-22T09:03:27.708Z,101260.00
2023-02-22T09:05:55.190Z,101268.00
2023-02-22T09:08:22.399Z,101270.00
2023-02-22T09:10:52.341Z,101266.00
2023-02-22T09:13:19.016Z,101266.00
2023-02-22T09:15:45.689Z,101264.00
2023-02-22T09:18:14.906Z,101264.00
2023-02-22T09:20:42.172Z,101262.00
2023-02-22T09:23:10.399Z,101268.00
2023-02-22T09:25:39.211Z,101243.00
2023-02-22T09:28:16.779Z,101271.00
2023-02-22T09:30:44.447Z,101259.00
2023-02-22T09:33:17.432Z,101257.00
2023-02-22T09:35:47.648Z,101259.00
2023-02-22T09:38:18.251Z,101255.00
2023-02-22T09:40:52.503Z,101263.00
2023-02-22T09:43:33.799Z,101254.00
2023-02-22T09:46:27.373Z,101253.00
2023-02-22T09:48:59.969Z,101252.00
2023-02-22T09:51:35.863Z,101238.00
2023-02-22T09:54:07.657Z,101247.00
2023-02-22T09:56:37.655Z,101243.00
2023-02-22T09:59:14.388Z,101247.00
2023-02-22T10:01:47.062Z,101238.00
2023-02-22T10:04:22.849Z,101241.00
2023-02-22T10:07:20.429Z,101238.00
2023-02-22T10:09:49.943Z,101240.00
2023-02-22T10:12:36.033Z,101239.00
2023-02-22T10:15:42.490Z,101233.00
2023-02-22T10:18:33.824Z,101236.00
2023-02-22T10:21:42.469Z,101232.00
2023-02-22T10:24:25.141Z,101239.00
2023-02-22T10:26:58.205Z,101236.00
2023-02-22T10:29:36.263Z,101223.00
2023-02-22T10:32:07.695Z,101239.00
2023-02-22T10:34:43.905Z,101231.00
2023-02-22T10:37:19.089Z,101229.00
2023-02-22T10:39:49.486Z,101238.00
2023-02-22T10:42:16.316Z,101234.00
2023-02-22T10:44:44.627Z,101230.00
2023-02-22T10:47:20.007Z,101227.00
2023-02-22T10:49:53.658Z,101237.00
2023-02-22T10:52:29.606Z,101230.00
2023-02-22T10:55:14.026Z,101231.00
2023-02-22T10:57:44.321Z,101230.00
2023-02-22T11:00:23.509Z,101230.00
2023-02-22T11:02:56.149Z,101220.00
2023-02-22T11:05:40.686Z,101223.00
2023-02-22T11:08:22.416Z,101222.00
2023-02-22T11:10:51.106Z,101224.00
2023-02-22T11:13:33.619Z,101213.00
2023-02-22T11:16:17.542Z,101218.00
2023-02-22T11:18:47.811Z,101213.00
2023-02-22T11:21:23.270Z,101216.00
2023-02-22T11:23:50.699Z,101212.00
2023-02-22T11:26:20.960Z,101221.00
2023-02-22T11:28:56.292Z,101219.00
2023-02-22T11:31:29.574Z,101213.00
2023-02-22T11:33:59.727Z,101210.00
2023-02-22T11:36:56.848Z,101198.00
2023-02-22T11:39:35.674Z,101202.00
2023-02-22T11:42:28.632Z,101203.00
2023-02-22T11:45:28.642Z,101200.00
2023-02-22T11:48:00.639Z,101201.00
2023-02-22T11:50:37.960Z,101184.00
2023-02-22T11:53:22.318Z,101203.00
2023-02-22T11:56:15.340Z,101190.00
2023-02-22T11:58:50.160Z,101191.00
2023-02-22T12:01:27.866Z,101177.00
2023-02-22T12:04:16.980Z,101180.00
2023-02-22T12:07:32.630Z,101179.00
2023-02-22T12:10:26.503Z,101178.00
2023-02-22T12:13:11.382Z,101185.00
2023-02-22T12:16:10.863Z,101172.00
2023-02-22T12:19:10.091Z,101165.00
2023-02-22T12:21:40.722Z,101173.00
2023-02-22T12:24:18.850Z,101160.00
2023-02-22T12:27:10.000Z,101164.00
2023-02-22T12:29:47.718Z,101164.00
2023-02-22T12:32:32.808Z,101172.00
2023-02-22T12:35:23.741Z,101164.00
2023-02-22T12:38:31.596Z,101167.00
2023-02-22T12:41:15.109Z,101171.00
2023-02-22T12:43:57.536Z,101168.00
2023-02-22T12:46:34.615Z,101169.00
2023-02-22T12:49:14.095Z,101166.00
2023-02-22T12:51:53.593Z,101169.00
2023-02-22T12:54:53.128Z,101164.00
2023-02-22T12:57:32.064Z,101165.00
2023-02-22T13:00:08.909Z,101169.00
2023-02-22T13:02:51.288Z,101172.00
2023-02-22T13:05:21.018Z,101168.00
2023-02-22T13:08:01.462Z,101172.00
2023-02-22T13:10:52.188Z,101160.00
2023-02-22T13:13:23.839Z,101161.00
2023-02-22T13:16:22.234Z,101164.00
2023-02-22T13:18:59.101Z,101155.00
2023-02-22T13:21:53.286Z,101158.00
2023-02-22T13:24:19.722Z,101156.00
2023-02-22T13:26:58.903Z,101152.00
2023-02-22T13:29:38.410Z,101146.00
2023-02-22T13:32:31.949Z,101152.00
2023-02-22T13:35:09.611Z,101147.00
2023-02-22T13:37:49.482Z,101139.00
2023-02-22T13:40:34.781Z,101144.00
2023-02-22T13:43:21.152Z,101146.00
2023-02-22T13:46:06.646Z,101139.00
2023-02-22T13:48:50.407Z,101146.00
2023-02-22T13:51:43.730Z,101147.00
2023-02-22T13:54:23.915Z,101134.00
2023-02-22T13:56:52.875Z,101147.00
2023-02-22T13:59:37.168Z,101142.00
2023-02-22T14:02:09.985Z,101144.00
2023-02-22T14:04:39.503Z,101132.00
2023-02-22T14:07:21.896Z,101141.00
2023-02-22T14:09:59.847Z,101140.00
2023-02-22T14:12:29.425Z,101132.00
2023-02-22T14:15:26.451Z,101139.00
2023-02-22T14:18:08.167Z,101132.00
2023-02-22T14:21:13.532Z,101128.00
2023-02-22T14:23:52.692Z,101127.00
2023-02-22T14:26:26.452Z,101126.00
2023-02-22T14:29:17.147Z,101124.00
2023-02-22T14:31:46.808Z,101126.00
2023-02-22T14:34:22.816Z,101123.00
2023-02-22T14:37:25.457Z,101112.00
2023-02-22T14:40:01.346Z,101109.00
2023-02-22T14:42:28.157Z,101112.00
2023-02-22T14:45:14.175Z,101105.00
2023-02-22T14:48:04.033Z,101107.00
2023-02-22T14:50:49.797Z,101099.00
2023-02-22T14:53:52.969Z,101111.00
2023-02-22T14:56:30.410Z,101105.00
2023-02-22T14:59:15.109Z,101096.00
2023-02-22T15:01:55.331Z,101090.00
2023-02-22T15:04:41.481Z,101112.00
2023-02-22T15:07:28.947Z,101091.00
2023-02-22T15:10:17.926Z,101094.00
2023-02-22T15:12:54.121Z,101089.00
2023-02-22T15:15:23.955Z,101088.00
2023-02-22T15:17:58.986Z,101096.00
2023-02-22T15:20:25.868Z,101093.00
2023-02-22T15:23:00.698Z,101088.00
2023-02-22T15:25:35.078Z,101106.00
2023-02-22T15:28:08.369Z,101084.00
2023-02-22T15:30:47.670Z,101094.00
2023-02-22T15:33:24.841Z,101099.00
2023-02-22T15:35:59.014Z,101101.00
2023-02-22T15:38:35.521Z,101089.00
2023-02-22T15:41:14.906Z,101101.00
2023-02-22T15:44:14.159Z,101092.00
2023-02-22T15:46:50.954Z,101076.00
2023-02-22T15:49:47.504Z,101085.00
2023-02-22T15:52:25.453Z,101081.00
2023-02-22T15:54:54.094Z,101092.00
2023-02-22T15:57:27.293Z,101082.00
2023-02-22T15:59:57.450Z,101076.00
2023-02-22T16:02:43.191Z,101068.00
2023-02-22T16:05:20.957Z,101080.00
2023-02-22T16:07:51.507Z,101084.00
2023-02-22T16:10:29.017Z,101065.00
2023-02-22T16:13:30.940Z,101081.00
2023-02-22T16:16:23.995Z,101067.00
2023-02-22T16:19:34.218Z,101088.00
2023-02-22T16:22:06.163Z,101068.00
2023-02-22T16:24:40.255Z,101060.00
2023-02-22T16:27:32.493Z,101070.00
2023-02-22T16:30:24.396Z,101055.00
2023-02-22T16:32:54.302Z,101069.00
2023-02-22T16:35:28.871Z,101072.00
2023-02-22T16:38:01.530Z,101075.00
2023-02-22T16:40:36.063Z,101069.00
2023-02-22T16:43:08.847Z,101069.00
2023-02-22T16:45:36.211Z,101078.00
2023-02-22T16:48:16.585Z,101069.00
2023-02-22T16:50:45.396Z,101074.00
2023-02-22T16:53:12.930Z,101079.00
2023-02-22T16:55:45.541Z,101066.00
2023-02-22T16:58:14.690Z,101069.00
2023-02-22T17:00:42.347Z,101079.00
2023-02-22T17:03:16.396Z,101081.00
2023-02-22T17:05:43.280Z,101081.00
2023-02-22T17:08:11.285Z,101077.00
2023-02-22T17:10:39.111Z,101076.00
2023-02-22T17:13:22.770Z,101083.00
2023-02-22T17:15:51.183Z,101077.00
2023-02-22T17:18:22.769Z,101077.00
2023-02-22T17:20:51.515Z,101077.00
2023-02-22T17:23:19.166Z,101077.00
2023-02-22T17:25:54.648Z,101073.00
2023-02-22T17:28:23.692Z,101073.00
2023-02-22T17:31:07.496Z,101069.00
2023-02-22T17:33:36.692Z,101072.00
2023-02-22T17:36:06.444Z,101075.00
2023-02-22T17:38:35.191Z,101075.00
2023-02-22T17:41:40.950Z,101083.00
2023-02-22T17:44:14.472Z,101060.00
2023-02-22T17:46:55.383Z,101070.00
2023-02-22T17:49:24.648Z,101073.00
2023-02-22T17:51:53.450Z,101056.00
2023-02-22T17:54:26.400Z,101074.00
2023-02-22T17:56:58.563Z,101064.00
2023-02-22T17:59:30.293Z,101067.00
2023-02-22T18:02:02.203Z,101073.00
2023-02-22T18:04:28.700Z,101069.00
2023-02-22T18:06:55.441Z,101070.00
2023-02-22T18:09:26.302Z,101066.00
2023-02-22T18:11:53.991Z,101063.00
2023-02-22T18:14:21.689Z,101065.00
2023-02-22T18:16:48.855Z,101061.00
2023-02-22T18:19:21.032Z,101054.00
2023-02-22T18:21:54.378Z,101065.00
2023-02-22T18:24:22.797Z,101064.00
2023-02-22T18:27:00.849Z,101064.00
2023-02-22T18:29:31.917Z,101069.00
2023-02-22T18:31:58.831Z,101072.00
2023-02-22T18:34:31.016Z,101071.00
2023-02-22T18:36:59.095Z,101056.00
2023-02-22T18:39:31.248Z,101058.00
2023-02-22T18:42:00.085Z,101048.00
2023-02-22T18:44:32.371Z,101066.00
2023-02-22T18:46:59.006Z,101059.00
2023-02-22T18:49:34.508Z,101057.00
2023-02-22T18:52:01.173Z,101058.00
2023-02-22T18:54:27.934Z,101059.00
2023-02-22T18:56:57.156Z,101059.00
2023-02-22T18:59:26.988Z,101040.00
2023-02-22T19:01:54.966Z,101050.00
2023-02-22T19:04:25.399Z,101038.00
2023-02-22T19:07:00.932Z,101054.00
2023-02-22T19:09:32.271Z,101046.00
2023-02-22T19:12:31.641Z,101039.00
2023-02-22T19:15:11.708Z,101047.00
2023-02-22T19:17:42.806Z,101033.00
2023-02-22T19:20:12.098Z,101042.00
2023-02-22T19:22:42.351Z,101051.00
2023-02-22T19:25:12.479Z,101058.00
2023-02-22T19:27:44.092Z,101046.00
2023-02-22T19:32:40.924Z,101041.00
2023-02-22T19:35:08.015Z,101049.00
2023-02-22T19:37:36.502Z,101050.00
2023-02-22T19:40:10.543Z,101053.00
2023-02-22T19:42:37.304Z,101047.00
2023-02-22T19:45:03.829Z,101052.00
2023-02-22T19:47:32.300Z,101052.00
2023-02-22T19:50:01.921Z,101052.00
2023-02-22T19:52:29.001Z,101056.00
2023-02-22T19:54:56.196Z,101072.00
2023-02-22T19:57:24.760Z,101063.00
2023-02-22T19:59:51.355Z,101049.00
2023-02-22T20:02:18.484Z,101051.00
2023-02-22T20:04:50.538Z,101049.00
2023-02-22T20:07:24.697Z,101061.00
2023-02-22T20:09:52.195Z,101052.00
2023-02-22T20:12:39.369Z,101053.00
2023-02-22T20:15:06.189Z,101053.00
2023-02-22T20:17:32.774Z,101042.00
2023-02-22T20:20:01.620Z,101061.00
2023-02-22T20:22:40.916Z,101054.00
2023-02-22T20:25:07.939Z,101062.00
2023-02-22T20:27:35.147Z,101058.00
2023-02-22T20:30:02.278Z,101046.00
2023-02-22T20:32:34.099Z,101044.00
2023-02-22T20:35:00.832Z,101046.00
2023-02-22T20:40:43.564Z,101042.00
2023-02-22T20:43:12.449Z,101044.00
2023-02-22T20:45:41.836Z,101046.00
2023-02-22T20:48:08.362Z,101050.00
2023-02-22T20:50:35.673Z,101042.00
2023-02-22T20:53:02.328Z,101045.00
2023-02-22T20:55:29.020Z,101054.00
2023-02-22T20:57:58.032Z,101051.00
2023-02-22T21:00:24.678Z,101039.00
2023-02-22T21:02:51.635Z,101047.00
2023-02-22T21:05:19.298Z,101044.00
2023-02-22T21:07:45.797Z,101036.00
2023-02-22T21:10:14.665Z,101047.00
2023-02-22T21:12:42.881Z,101027.00
2023-02-22T21:15:10.236Z,101043.00
2023-02-22T21:17:37.835Z,101044.00
2023-02-22T21:20:12.030Z,101043.00
2023-02-22T21:22:41.745Z,101046.00
2023-02-22T21:25:10.919Z,101036.00
2023-02-22T21:27:38.665Z,101038.00
2023-02-22T21:30:06.208Z,101037.00
2023-02-22T21:32:33.304Z,101040.00
2023-02-22T21:35:00.174Z,101037.00
2023-02-22T21:37:29.038Z,101044.00
2023-02-22T21:42:46.142Z,101024.00
2023-02-22T21:45:15.555Z,101019.00
2023-02-22T21:47:46.542Z,101024.00
2023-02-22T21:50:20.320Z,101008.00
2023-02-22T21:55:32.344Z,101011.00
2023-02-22T22:14:25.079Z,101004.00
2023-02-22T22:33:13.161Z,100996.00
2023-02-22T22:35:43.564Z,100986.00
2023-02-22T22:38:11.205Z,100996.00
2023-02-22T22:43:28.210Z,100996.00
2023-02-22T22:45:56.291Z,100994.00
2023-02-22T22:48:29.049Z,100993.00
2023-02-22T22:53:57.684Z,100983.00
2023-02-22T22:59:08.488Z,100983.00
2023-02-22T23:04:29.058Z,100971.00
2023-02-22T23:06:57.191Z,100971.00
2023-02-22T23:09:30.210Z,100977.00
2023-02-22T23:12:09.429Z,100972.00
2023-02-22T23:14:44.681Z,100977.00
2023-02-22T23:17:27.014Z,100981.00
2023-02-22T23:19:53.588Z,100970.00
2023-02-22T23:22:24.078Z,100976.00
2023-02-22T23:24:54.764Z,100957.00
2023-02-22T23:27:24.285Z,100959.00
2023-02-22T23:29:52.986Z,100949.00
2023-02-22T23:32:19.935Z,100960.00
2023-02-22T23:34:50.158Z,100965.00
2023-02-22T23:37:20.781Z,100967.00
2023-02-22T23:39:48.513Z,100967.00
2023-02-22T23:42:16.877Z,100959.00
2023-02-22T23:44:46.663Z,100974.00
2023-02-22T23:47:13.154Z,100965.00
2023-02-22T23:49:43.861Z,100964.00
2023-02-22T23:52:13.430Z,100968.00
2023-02-22T23:54:44.211Z,100972.00
2023-02-22T23:57:11.171Z,100947.00
2023-02-22T23:59:40.727Z,100948.00
